CheckWX is a tool to help pilots better visualize weather data.  It is not intended as a substitute for an official pre-flight weather briefing.

00:23:42 UTC

KOQT METAR
Oak Ridge Airport
Tennessee, USA
Current

31 mins ago

KOQT 222353Z AUTO VRB03KT 10SM CLR 15/04 A2999 RMK AO2 SLP152 T01500039 10211 20150 53017
Observed
Oct-22 @ 23:53 UTC
Wind
  • Variable at 3 KTS
Visibility
10 SM
Flight Rules
VFR
Cloud Levels
  • Clear skies
Temperature
15°C / 59°F
Dewpoint
C / 39°F
Humidity
48%
Altimeter
29.99" Hg
Pressure
1015.62 hPa
Previous

2 hours ago

KOQT 222253Z AUTO 26004KT 10SM CLR 17/03 A2997 RMK AO2 SLP143 T01720033
Observed
Oct-22 @ 22:53 UTC
Wind
  • 260° at 4 KTS
Visibility
10 SM
Flight Rules
VFR
Cloud Levels
  • Clear skies
Temperature
17°C / 63°F
Dewpoint
C / 37°F
Humidity
39%
Altimeter
29.97" Hg
Pressure
1014.92 hPa
Previous

3 hours ago

KOQT 222153Z AUTO 27005G15KT 10SM CLR 19/03 A2995 RMK AO2 SLP134 T01940028
Observed
Oct-22 @ 21:53 UTC
Wind
  • 270° at 5 KTS
  • Gusting to 15 KTS
Visibility
10 SM
Flight Rules
VFR
Cloud Levels
  • Clear skies
Temperature
19°C / 66°F
Dewpoint
C / 37°F
Humidity
35%
Altimeter
29.95" Hg
Pressure
1014.22 hPa